Time;durP1;ratioP1;P1;durP2;ratioP2;P2;SDS_P1;SDS_P2;PMS_P1;PMS_P2;Temp;Humidity;BMP_temperature;BMP_pressure;BME280_temperature;BME280_humidity;BME280_pressure;Samples;Min_cycle;Max_cycle;Signal;HPM_P1;HPM_P2
2022/06/30 00:01:27;;;;;;;5.93;5.33;;;;;;;;;;5033424;28;20467;-76
2022/06/30 00:03:53;;;;;;;5.63;5.07;;;;;;;;;;5032719;28;20401;-75
2022/06/30 00:06:19;;;;;;;9.90;5.33;;;;;;;;;;5032517;28;20445;-76
2022/06/30 00:08:45;;;;;;;6.87;5.60;;;;;;;;;;5032046;28;20877;-75
2022/06/30 00:11:11;;;;;;;5.57;5.00;;;;;;;;;;5033409;28;20539;-74
2022/06/30 00:13:38;;;;;;;5.57;5.00;;;;;;;;;;5032880;28;20498;-75
2022/06/30 00:16:04;;;;;;;5.10;4.70;;;;;;;;;;5032973;28;20524;-75
2022/06/30 00:18:31;;;;;;;5.23;4.83;;;;;;;;;;5033170;28;20746;-75
2022/06/30 00:20:57;;;;;;;5.43;4.70;;;;;;;;;;5033308;28;20395;-74
2022/06/30 00:23:23;;;;;;;6.60;5.93;;;;;;;;;;5032768;28;20412;-75
2022/06/30 00:25:50;;;;;;;5.13;4.43;;;;;;;;;;5033169;28;20826;-75
2022/06/30 00:28:18;;;;;;;5.37;4.87;;;;;;;;;;5032999;28;20413;-75
2022/06/30 00:30:44;;;;;;;7.90;5.17;;;;;;;;;;5033057;28;20422;-75
2022/06/30 00:33:10;;;;;;;12.10;6.00;;;;;;;;;;5032465;28;20425;-75
2022/06/30 00:35:36;;;;;;;7.07;5.30;;;;;;;;;;5032955;28;20416;-75
2022/06/30 00:38:04;;;;;;;8.30;5.23;;;;;;;;;;5031482;28;20388;-75
2022/06/30 00:40:34;;;;;;;10.50;5.50;;;;;;;;;;5032651;28;20435;-75
2022/06/30 00:42:59;;;;;;;6.10;5.10;;;;;;;;;;5031183;28;20516;-74
2022/06/30 00:45:25;;;;;;;7.90;4.90;;;;;;;;;;5032853;28;20595;-75
2022/06/30 00:47:51;;;;;;;6.70;5.57;;;;;;;;;;5032805;28;20392;-75
2022/06/30 00:50:17;;;;;;;6.67;5.73;;;;;;;;;;5031417;28;20728;-75
2022/06/30 00:52:44;;;;;;;10.07;5.93;;;;;;;;;;5032636;28;20392;-76
2022/06/30 00:55:11;;;;;;;6.77;5.30;;;;;;;;;;5032417;28;20499;-75
2022/06/30 00:57:38;;;;;;;6.13;5.53;;;;;;;;;;5032661;28;20484;-75
2022/06/30 01:00:04;;;;;;;7.97;5.60;;;;;;;;;;5032550;28;20463;-74
2022/06/30 01:02:30;;;;;;;6.97;5.60;;;;;;;;;;5032335;28;20388;-75
2022/06/30 01:04:57;;;;;;;9.10;5.63;;;;;;;;;;5032093;28;20404;-75
2022/06/30 01:07:24;;;;;;;8.13;4.87;;;;;;;;;;5032551;28;20395;-74
2022/06/30 01:12:44;;;;;;;7.00;5.10;;;;;;;;;;5033069;28;20387;-74
2022/06/30 01:15:17;;;;;;;5.83;4.70;;;;;;;;;;5032198;28;20800;-75
2022/06/30 01:17:43;;;;;;;5.90;5.20;;;;;;;;;;5036268;28;20475;-75
2022/06/30 01:20:10;;;;;;;7.53;5.47;;;;;;;;;;5036394;28;20936;-75
2022/06/30 01:22:36;;;;;;;5.80;5.30;;;;;;;;;;5036382;28;20912;-75
2022/06/30 01:25:02;;;;;;;5.70;4.53;;;;;;;;;;5035890;28;20465;-75
2022/06/30 01:27:28;;;;;;;5.43;4.97;;;;;;;;;;5036278;28;20442;-75
2022/06/30 01:29:55;;;;;;;8.50;4.97;;;;;;;;;;5036292;28;20396;-75
2022/06/30 01:32:21;;;;;;;5.30;4.80;;;;;;;;;;5036317;28;20408;-74
2022/06/30 01:34:47;;;;;;;5.67;5.17;;;;;;;;;;5036032;28;20423;-75
2022/06/30 01:37:13;;;;;;;5.70;5.20;;;;;;;;;;5036269;28;20403;-74
2022/06/30 01:39:39;;;;;;;5.23;4.73;;;;;;;;;;5036252;28;20469;-75
2022/06/30 01:42:05;;;;;;;7.20;5.50;;;;;;;;;;5036184;28;20474;-75
2022/06/30 01:44:31;;;;;;;6.03;5.43;;;;;;;;;;5035571;28;20380;-75
2022/06/30 01:46:58;;;;;;;5.60;4.57;;;;;;;;;;5035857;28;20387;-75
2022/06/30 01:49:24;;;;;;;6.07;5.47;;;;;;;;;;5035931;28;20392;-75
2022/06/30 01:51:50;;;;;;;8.93;5.80;;;;;;;;;;5034768;28;20503;-75
2022/06/30 01:54:16;;;;;;;9.27;5.87;;;;;;;;;;5035514;28;20909;-75
2022/06/30 01:56:42;;;;;;;8.27;5.70;;;;;;;;;;5035600;28;20443;-75
2022/06/30 01:59:08;;;;;;;6.10;5.30;;;;;;;;;;5035586;28;20925;-75
2022/06/30 02:01:35;;;;;;;5.90;5.30;;;;;;;;;;5035631;28;20471;-75
2022/06/30 02:06:46;;;;;;;5.40;4.80;;;;;;;;;;5035723;28;20446;-75
2022/06/30 02:09:12;;;;;;;6.00;4.80;;;;;;;;;;5035345;28;20384;-74
2022/06/30 02:11:38;;;;;;;6.27;5.67;;;;;;;;;;5035634;28;20386;-74
2022/06/30 02:14:04;;;;;;;7.83;6.20;;;;;;;;;;5035156;28;20907;-75
2022/06/30 02:16:30;;;;;;;6.43;5.57;;;;;;;;;;5035420;28;20403;-75
2022/06/30 02:18:57;;;;;;;6.47;5.80;;;;;;;;;;5035310;28;20484;-75
2022/06/30 02:21:23;;;;;;;6.43;5.83;;;;;;;;;;5035395;28;20515;-75
2022/06/30 02:23:51;;;;;;;8.23;6.57;;;;;;;;;;5035017;28;20777;-75
2022/06/30 02:26:17;;;;;;;7.40;6.40;;;;;;;;;;5035259;28;20442;-74
2022/06/30 02:28:43;;;;;;;7.50;5.90;;;;;;;;;;5034301;28;20546;-75
2022/06/30 02:31:12;;;;;;;5.77;5.27;;;;;;;;;;5035038;28;20435;-76
2022/06/30 02:33:38;;;;;;;6.47;5.87;;;;;;;;;;5033350;28;20838;-75
2022/06/30 02:36:04;;;;;;;6.27;5.67;;;;;;;;;;5035032;28;20467;-75
2022/06/30 02:38:30;;;;;;;6.20;5.63;;;;;;;;;;5033634;28;20395;-74
2022/06/30 02:40:56;;;;;;;7.57;6.47;;;;;;;;;;5033804;28;20418;-74
2022/06/30 02:43:22;;;;;;;7.00;6.23;;;;;;;;;;5034499;28;20475;-75
2022/06/30 02:45:48;;;;;;;6.17;5.37;;;;;;;;;;5034958;28;20411;-75
2022/06/30 02:48:16;;;;;;;7.60;6.73;;;;;;;;;;5033645;28;20406;-75
2022/06/30 02:50:44;;;;;;;15.17;6.27;;;;;;;;;;5034680;28;20450;-75
2022/06/30 02:53:10;;;;;;;6.47;5.87;;;;;;;;;;5034366;28;20757;-74
2022/06/30 02:55:36;;;;;;;6.53;5.93;;;;;;;;;;5034372;28;20407;-75
2022/06/30 02:58:02;;;;;;;7.93;6.10;;;;;;;;;;5017010;28;20508;-74
2022/06/30 03:00:29;;;;;;;6.23;5.60;;;;;;;;;;5034564;28;20432;-75
2022/06/30 03:02:55;;;;;;;6.10;5.50;;;;;;;;;;5034358;28;20384;-75
2022/06/30 03:05:22;;;;;;;6.00;5.40;;;;;;;;;;5034315;28;20434;-74
2022/06/30 03:07:48;;;;;;;6.27;5.50;;;;;;;;;;5034537;28;20409;-75
2022/06/30 03:10:14;;;;;;;7.93;5.37;;;;;;;;;;5033212;28;20396;-75
2022/06/30 03:12:39;;;;;;;6.63;6.03;;;;;;;;;;5034692;28;20421;-75
2022/06/30 03:15:06;;;;;;;7.53;6.73;;;;;;;;;;5032564;28;20454;-74
2022/06/30 03:17:32;;;;;;;7.53;6.33;;;;;;;;;;5034204;28;20519;-74
2022/06/30 03:19:58;;;;;;;9.30;6.10;;;;;;;;;;5034308;28;20501;-74
2022/06/30 03:22:24;;;;;;;8.90;6.50;;;;;;;;;;5034246;28;20409;-75
2022/06/30 03:24:50;;;;;;;6.60;5.80;;;;;;;;;;5033732;28;20949;-75
2022/06/30 03:27:16;;;;;;;6.73;6.07;;;;;;;;;;5034061;28;20380;-75
2022/06/30 03:29:42;;;;;;;8.13;5.80;;;;;;;;;;5034008;28;20416;-75
2022/06/30 03:32:08;;;;;;;7.07;6.47;;;;;;;;;;5033931;28;20403;-74
2022/06/30 03:34:34;;;;;;;8.60;7.33;;;;;;;;;;5033513;28;20944;-75
2022/06/30 03:37:00;;;;;;;8.73;6.80;;;;;;;;;;5034037;28;20480;-75
2022/06/30 03:39:26;;;;;;;6.30;5.70;;;;;;;;;;5033515;28;20463;-75
2022/06/30 03:41:52;;;;;;;6.80;6.13;;;;;;;;;;5033987;28;20395;-75
2022/06/30 03:44:18;;;;;;;7.83;6.30;;;;;;;;;;5033591;28;20755;-74
2022/06/30 03:46:45;;;;;;;8.50;5.93;;;;;;;;;;5032436;28;20412;-75
2022/06/30 03:49:11;;;;;;;7.80;5.87;;;;;;;;;;5033690;28;20814;-75
2022/06/30 03:51:37;;;;;;;7.07;6.23;;;;;;;;;;5033620;28;20419;-74
2022/06/30 03:54:03;;;;;;;7.70;6.90;;;;;;;;;;5033464;28;20493;-74
2022/06/30 03:56:29;;;;;;;8.77;7.03;;;;;;;;;;5033504;28;20422;-75
2022/06/30 03:58:55;;;;;;;8.70;6.60;;;;;;;;;;5033312;28;20958;-74
2022/06/30 04:01:21;;;;;;;6.70;6.00;;;;;;;;;;5033364;28;20410;-74
2022/06/30 04:03:47;;;;;;;6.53;5.93;;;;;;;;;;5032973;28;20938;-74
2022/06/30 04:06:13;;;;;;;9.87;7.17;;;;;;;;;;5033286;28;20480;-74
2022/06/30 04:08:39;;;;;;;16.20;7.20;;;;;;;;;;5032086;28;20387;-75
2022/06/30 04:11:05;;;;;;;9.50;7.30;;;;;;;;;;5033216;28;20606;-75
2022/06/30 04:13:31;;;;;;;8.43;7.57;;;;;;;;;;5032876;28;20459;-75
2022/06/30 04:15:57;;;;;;;9.00;7.47;;;;;;;;;;5033066;28;20434;-75
2022/06/30 04:18:23;;;;;;;7.73;6.53;;;;;;;;;;5033249;28;20482;-74
2022/06/30 04:20:49;;;;;;;8.40;6.40;;;;;;;;;;5033058;28;20448;-75
2022/06/30 04:23:15;;;;;;;6.87;6.27;;;;;;;;;;5033024;28;20601;-74
2022/06/30 04:25:41;;;;;;;7.30;6.33;;;;;;;;;;5032808;28;20454;-74
2022/06/30 04:28:07;;;;;;;7.93;7.10;;;;;;;;;;5033302;28;20401;-75
2022/06/30 04:33:18;;;;;;;9.70;7.23;;;;;;;;;;5032931;28;20449;-75
2022/06/30 04:35:44;;;;;;;7.80;6.50;;;;;;;;;;5032988;28;20408;-74
2022/06/30 04:38:10;;;;;;;8.10;6.57;;;;;;;;;;5031445;28;20429;-75
2022/06/30 04:43:20;;;;;;;8.13;6.70;;;;;;;;;;5031854;28;20502;-75
2022/06/30 04:45:46;;;;;;;7.27;6.27;;;;;;;;;;5031598;28;20441;-74
2022/06/30 04:48:12;;;;;;;7.00;6.20;;;;;;;;;;5032588;28;20481;-75
2022/06/30 04:50:39;;;;;;;7.80;5.93;;;;;;;;;;5030820;28;20467;-74
2022/06/30 04:53:05;;;;;;;6.63;6.00;;;;;;;;;;5031360;28;20670;-74
2022/06/30 04:55:31;;;;;;;7.43;6.50;;;;;;;;;;5032673;28;20736;-74
2022/06/30 04:57:57;;;;;;;8.30;5.70;;;;;;;;;;5032742;28;20761;-75
2022/06/30 05:00:23;;;;;;;6.33;5.80;;;;;;;;;;5032385;28;20439;-75
2022/06/30 05:02:49;;;;;;;5.47;4.93;;;;;;;;;;5032477;28;20392;-75
2022/06/30 05:05:15;;;;;;;6.70;5.07;;;;;;;;;;5032379;28;21072;-75
2022/06/30 05:07:41;;;;;;;6.10;5.23;;;;;;;;;;5031395;28;20383;-74
2022/06/30 05:10:07;;;;;;;6.90;5.93;;;;;;;;;;5032299;28;20388;-75
2022/06/30 05:12:33;;;;;;;6.23;5.63;;;;;;;;;;5032314;28;20412;-76
2022/06/30 05:14:59;;;;;;;8.40;5.07;;;;;;;;;;5032133;28;20866;-76
2022/06/30 05:17:25;;;;;;;6.43;5.20;;;;;;;;;;5049712;28;20440;-76
2022/06/30 05:19:51;;;;;;;7.43;5.07;;;;;;;;;;5052326;28;20828;-74
2022/06/30 05:22:18;;;;;;;6.07;5.40;;;;;;;;;;5052182;28;20955;-74
2022/06/30 05:27:28;;;;;;;10.33;5.20;;;;;;;;;;5052714;28;20781;-74
2022/06/30 05:29:55;;;;;;;5.27;4.73;;;;;;;;;;5052397;28;20506;-77
2022/06/30 05:32:21;;;;;;;6.00;5.37;;;;;;;;;;5052118;28;20413;-74
2022/06/30 05:34:47;;;;;;;6.10;5.17;;;;;;;;;;5051902;28;20436;-74
2022/06/30 05:37:13;;;;;;;5.10;4.60;;;;;;;;;;5052265;28;20412;-75
2022/06/30 05:39:40;;;;;;;7.57;4.83;;;;;;;;;;5052013;28;20804;-76
2022/06/30 05:42:06;;;;;;;4.90;4.40;;;;;;;;;;5052270;28;20771;-75
2022/06/30 05:44:32;;;;;;;5.10;4.60;;;;;;;;;;5051673;28;20400;-75
2022/06/30 05:46:58;;;;;;;5.47;4.27;;;;;;;;;;5052062;28;20383;-74
2022/06/30 05:49:25;;;;;;;4.87;4.30;;;;;;;;;;5052099;28;20416;-74
2022/06/30 05:51:52;;;;;;;5.00;4.57;;;;;;;;;;5052276;28;20412;-74
2022/06/30 05:54:18;;;;;;;5.70;4.27;;;;;;;;;;5050564;28;20391;-75
2022/06/30 05:56:44;;;;;;;5.47;3.73;;;;;;;;;;5051800;28;20436;-77
2022/06/30 05:59:10;;;;;;;4.93;4.47;;;;;;;;;;5051966;28;20458;-76
2022/06/30 06:01:36;;;;;;;5.70;4.63;;;;;;;;;;5051969;28;20505;-76
2022/06/30 06:04:03;;;;;;;4.53;4.10;;;;;;;;;;5055311;28;20383;-74
2022/06/30 06:06:29;;;;;;;5.70;3.87;;;;;;;;;;5055896;28;20472;-75
2022/06/30 06:08:55;;;;;;;10.13;4.13;;;;;;;;;;5055366;28;20420;-75
2022/06/30 06:11:21;;;;;;;5.40;4.10;;;;;;;;;;5054078;28;20427;-75
2022/06/30 06:13:47;;;;;;;7.97;4.37;;;;;;;;;;5053963;28;20483;-75
2022/06/30 06:16:12;;;;;;;6.60;4.33;;;;;;;;;;5055327;28;20828;-75
2022/06/30 06:18:38;;;;;;;3.90;3.50;;;;;;;;;;5055066;28;20511;-74
2022/06/30 06:21:04;;;;;;;5.40;4.17;;;;;;;;;;5053933;28;20767;-76
2022/06/30 06:23:30;;;;;;;5.20;4.27;;;;;;;;;;5054841;28;20417;-75
2022/06/30 06:25:56;;;;;;;4.67;4.10;;;;;;;;;;5055133;28;20442;-75
2022/06/30 06:31:07;;;;;;;5.20;4.50;;;;;;;;;;5055422;28;20987;-75
2022/06/30 06:33:34;;;;;;;6.13;5.27;;;;;;;;;;5055183;28;20409;-78
2022/06/30 06:36:00;;;;;;;4.83;3.87;;;;;;;;;;5053801;28;20440;-78
2022/06/30 06:38:27;;;;;;;6.53;3.90;;;;;;;;;;5053716;28;20512;-78
2022/06/30 06:40:53;;;;;;;5.53;4.53;;;;;;;;;;5054825;28;21055;-78
2022/06/30 06:43:19;;;;;;;4.27;3.87;;;;;;;;;;5054533;28;20897;-77
2022/06/30 06:45:45;;;;;;;5.60;3.90;;;;;;;;;;5053672;28;20414;-77
2022/06/30 06:48:11;;;;;;;8.67;4.40;;;;;;;;;;5054892;28;20869;-78
2022/06/30 06:50:37;;;;;;;6.87;4.30;;;;;;;;;;5054736;28;20419;-77
2022/06/30 06:53:03;;;;;;;11.27;4.20;;;;;;;;;;5054266;28;20495;-78
2022/06/30 06:55:29;;;;;;;9.33;4.27;;;;;;;;;;5054572;28;21028;-78
2022/06/30 06:57:55;;;;;;;5.80;3.80;;;;;;;;;;5053426;28;20435;-76
2022/06/30 07:00:22;;;;;;;4.90;4.00;;;;;;;;;;5054478;28;20451;-78
2022/06/30 07:02:48;;;;;;;4.57;4.10;;;;;;;;;;5053193;28;20421;-76
2022/06/30 07:05:14;;;;;;;6.93;3.60;;;;;;;;;;5053975;28;20512;-77
2022/06/30 07:07:40;;;;;;;5.63;3.90;;;;;;;;;;5054653;28;20491;-77
2022/06/30 07:10:07;;;;;;;4.20;3.53;;;;;;;;;;5054449;28;20424;-76
2022/06/30 07:12:33;;;;;;;4.60;4.00;;;;;;;;;;5054226;28;20424;-77
2022/06/30 07:14:59;;;;;;;11.23;3.90;;;;;;;;;;5051932;28;20440;-77
2022/06/30 07:17:25;;;;;;;4.73;3.60;;;;;;;;;;5052866;28;20485;-78
2022/06/30 07:19:52;;;;;;;7.07;3.40;;;;;;;;;;5052842;28;20537;-77
2022/06/30 07:22:18;;;;;;;4.83;4.17;;;;;;;;;;5052665;28;20493;-77
2022/06/30 07:24:44;;;;;;;6.33;4.40;;;;;;;;;;5052347;28;20921;-77
2022/06/30 07:27:10;;;;;;;5.63;3.53;;;;;;;;;;5053006;28;20534;-78
2022/06/30 07:29:36;;;;;;;6.10;3.93;;;;;;;;;;5053908;28;20409;-77
2022/06/30 07:32:02;;;;;;;11.63;3.57;;;;;;;;;;5053887;28;20433;-77
2022/06/30 07:34:28;;;;;;;4.43;3.20;;;;;;;;;;5052248;28;20562;-77
2022/06/30 07:36:54;;;;;;;5.17;3.57;;;;;;;;;;5052511;28;20507;-77
2022/06/30 07:39:20;;;;;;;2.57;2.37;;;;;;;;;;5053603;28;20886;-77
2022/06/30 07:41:48;;;;;;;4.37;3.40;;;;;;;;;;5053652;28;20411;-77
2022/06/30 07:44:14;;;;;;;5.47;3.00;;;;;;;;;;5053354;28;20415;-77
2022/06/30 07:46:40;;;;;;;5.63;3.10;;;;;;;;;;5046492;28;20444;-77
2022/06/30 07:49:06;;;;;;;4.00;3.20;;;;;;;;;;5033537;28;20509;-77
2022/06/30 07:51:32;;;;;;;3.47;3.00;;;;;;;;;;5033555;28;20810;-76
2022/06/30 07:53:58;;;;;;;9.40;3.30;;;;;;;;;;5033233;28;20414;-77
2022/06/30 07:56:24;;;;;;;6.13;3.23;;;;;;;;;;5031809;28;20415;-80
2022/06/30 07:58:50;;;;;;;4.40;3.03;;;;;;;;;;5033355;28;20419;-77
2022/06/30 08:01:18;;;;;;;6.93;3.63;;;;;;;;;;5032316;28;20437;-76
2022/06/30 08:03:44;;;;;;;5.23;3.57;;;;;;;;;;5032976;28;20388;-76
2022/06/30 08:06:10;;;;;;;4.20;3.33;;;;;;;;;;5033402;28;20463;-76
2022/06/30 08:08:36;;;;;;;5.67;3.30;;;;;;;;;;5032091;28;20417;-76
2022/06/30 08:11:02;;;;;;;5.60;3.20;;;;;;;;;;5032052;28;20501;-76
2022/06/30 08:13:29;;;;;;;6.07;2.70;;;;;;;;;;5031670;28;20418;-76
2022/06/30 08:15:55;;;;;;;2.83;2.50;;;;;;;;;;5032968;28;20445;-77
2022/06/30 08:18:21;;;;;;;6.53;2.70;;;;;;;;;;5031788;28;20924;-76
2022/06/30 08:20:47;;;;;;;9.30;2.40;;;;;;;;;;5033042;28;21054;-76
2022/06/30 08:23:13;;;;;;;4.80;3.10;;;;;;;;;;5032894;28;20853;-76
2022/06/30 08:25:39;;;;;;;3.10;2.47;;;;;;;;;;5030693;28;20856;-76
2022/06/30 08:28:05;;;;;;;4.73;2.47;;;;;;;;;;5032951;28;20446;-77
2022/06/30 08:30:32;;;;;;;4.70;2.63;;;;;;;;;;5032992;28;20407;-76
2022/06/30 08:32:58;;;;;;;3.20;2.37;;;;;;;;;;5032592;28;20853;-76
2022/06/30 08:35:24;;;;;;;5.50;2.30;;;;;;;;;;5032630;28;20864;-76
2022/06/30 08:37:50;;;;;;;3.90;2.20;;;;;;;;;;5032834;28;20854;-77
2022/06/30 08:43:01;;;;;;;2.97;2.20;;;;;;;;;;5032875;28;20910;-76
2022/06/30 08:45:29;;;;;;;3.67;2.00;;;;;;;;;;5032772;28;20427;-76
2022/06/30 08:47:56;;;;;;;5.60;2.30;;;;;;;;;;5032619;28;20412;-77
2022/06/30 08:50:22;;;;;;;8.20;2.50;;;;;;;;;;5032599;28;20418;-76
2022/06/30 08:52:53;;;;;;;7.70;3.23;;;;;;;;;;5032615;28;20409;-76
2022/06/30 08:55:21;;;;;;;7.97;2.80;;;;;;;;;;5032572;28;20429;-76
2022/06/30 08:57:48;;;;;;;8.90;3.13;;;;;;;;;;5032560;28;20492;-76
2022/06/30 09:00:16;;;;;;;11.50;3.03;;;;;;;;;;5032449;28;20464;-76
2022/06/30 09:02:42;;;;;;;8.37;3.00;;;;;;;;;;5032516;28;20414;-76
2022/06/30 09:05:09;;;;;;;5.10;2.60;;;;;;;;;;5032350;28;20839;-76
2022/06/30 09:07:35;;;;;;;15.97;3.60;;;;;;;;;;5032638;28;20411;-76
2022/06/30 09:10:01;;;;;;;8.43;3.27;;;;;;;;;;5032435;28;20405;-75
2022/06/30 09:12:27;;;;;;;17.23;3.90;;;;;;;;;;5031139;28;20898;-76
2022/06/30 09:14:53;;;;;;;14.60;3.43;;;;;;;;;;5032050;28;20426;-75
2022/06/30 09:17:21;;;;;;;14.27;3.03;;;;;;;;;;5032527;28;20414;-75
2022/06/30 09:20:08;;;;;;;15.90;3.57;;;;;;;;;;5032413;28;20456;-75
2022/06/30 09:22:38;;;;;;;11.13;4.23;;;;;;;;;;5032431;28;20425;-75
2022/06/30 09:25:09;;;;;;;7.73;3.30;;;;;;;;;;5030856;28;20910;-75
2022/06/30 09:27:36;;;;;;;8.97;3.30;;;;;;;;;;5032580;28;20898;-75
2022/06/30 09:30:09;;;;;;;6.57;3.77;;;;;;;;;;5032215;28;20416;-75
2022/06/30 09:32:47;;;;;;;13.47;2.80;;;;;;;;;;5032081;28;20792;-75
2022/06/30 09:35:13;;;;;;;11.37;3.87;;;;;;;;;;5031967;28;20984;-75
2022/06/30 09:37:39;;;;;;;6.00;2.40;;;;;;;;;;5034175;28;20401;-75
2022/06/30 09:40:06;;;;;;;6.67;3.13;;;;;;;;;;5036195;28;20483;-75
2022/06/30 09:42:36;;;;;;;10.33;3.50;;;;;;;;;;5036028;28;20494;-73
2022/06/30 09:45:02;;;;;;;5.70;3.20;;;;;;;;;;5035737;28;20491;-73
2022/06/30 09:47:29;;;;;;;5.90;2.67;;;;;;;;;;5036004;28;20401;-73
2022/06/30 09:49:54;;;;;;;7.00;3.10;;;;;;;;;;5036153;28;20443;-73
2022/06/30 09:52:25;;;;;;;6.70;2.93;;;;;;;;;;5034825;28;20413;-73
2022/06/30 09:54:54;;;;;;;7.17;2.83;;;;;;;;;;5035549;28;20791;-73
2022/06/30 09:57:21;;;;;;;11.20;3.27;;;;;;;;;;5035928;28;20409;-73
2022/06/30 09:59:47;;;;;;;4.53;2.20;;;;;;;;;;5035716;28;20871;-72
2022/06/30 10:02:13;;;;;;;6.47;2.77;;;;;;;;;;5035489;28;20501;-72
2022/06/30 10:04:57;;;;;;;5.57;2.70;;;;;;;;;;5035028;28;20441;-73
2022/06/30 10:07:24;;;;;;;7.77;2.53;;;;;;;;;;5035631;28;20489;-74
2022/06/30 10:09:51;;;;;;;5.43;3.27;;;;;;;;;;5035556;28;20552;-73
2022/06/30 10:12:24;;;;;;;12.43;3.10;;;;;;;;;;5034958;28;20410;-74
2022/06/30 10:14:52;;;;;;;8.10;3.00;;;;;;;;;;5034876;28;20459;-73
2022/06/30 10:17:28;;;;;;;8.53;3.00;;;;;;;;;;5035290;28;20822;-74
2022/06/30 10:19:55;;;;;;;8.80;3.33;;;;;;;;;;5035540;28;20456;-74
2022/06/30 10:22:22;;;;;;;5.70;2.80;;;;;;;;;;5035450;28;20417;-74
2022/06/30 10:24:49;;;;;;;13.23;3.47;;;;;;;;;;5034821;28;20444;-74
2022/06/30 10:27:15;;;;;;;11.87;3.30;;;;;;;;;;5035292;28;20420;-73
2022/06/30 10:29:44;;;;;;;5.23;2.93;;;;;;;;;;5035297;28;20413;-73
2022/06/30 10:32:22;;;;;;;6.03;2.70;;;;;;;;;;5035259;28;20819;-73
2022/06/30 10:35:04;;;;;;;7.73;3.13;;;;;;;;;;5034637;28;20814;-73
2022/06/30 10:37:34;;;;;;;8.40;3.63;;;;;;;;;;5047374;28;20504;-73
2022/06/30 10:40:06;;;;;;;9.37;4.27;;;;;;;;;;5053656;28;20452;-73
2022/06/30 10:42:49;;;;;;;10.20;4.33;;;;;;;;;;5055235;28;20562;-74
2022/06/30 10:45:27;;;;;;;11.43;3.97;;;;;;;;;;5054742;28;20420;-73
2022/06/30 10:48:01;;;;;;;7.33;3.30;;;;;;;;;;5051610;28;20420;-73
2022/06/30 10:50:34;;;;;;;7.43;4.20;;;;;;;;;;5044067;28;20428;-75
2022/06/30 10:53:02;;;;;;;15.20;4.40;;;;;;;;;;5043679;28;20406;-74
2022/06/30 10:55:28;;;;;;;8.23;3.60;;;;;;;;;;5043449;28;20436;-74
2022/06/30 10:57:59;;;;;;;7.67;3.63;;;;;;;;;;5054408;28;20425;-73
2022/06/30 11:00:44;;;;;;;11.57;4.00;;;;;;;;;;5054595;28;20463;-73
2022/06/30 11:03:12;;;;;;;6.17;3.63;;;;;;;;;;5053903;28;20400;-74
2022/06/30 11:05:51;;;;;;;8.73;4.10;;;;;;;;;;5054445;28;20420;-74
2022/06/30 11:08:39;;;;;;;5.30;3.20;;;;;;;;;;5053186;28;20470;-74
2022/06/30 11:11:23;;;;;;;7.73;3.90;;;;;;;;;;5054026;28;20396;-74
2022/06/30 11:14:14;;;;;;;14.87;4.03;;;;;;;;;;5054102;28;20462;-74
2022/06/30 11:16:40;;;;;;;10.37;4.10;;;;;;;;;;5051410;28;20448;-74
2022/06/30 11:19:14;;;;;;;6.90;3.93;;;;;;;;;;5054048;28;20462;-74
2022/06/30 11:21:43;;;;;;;8.10;3.30;;;;;;;;;;5054320;28;20511;-74
2022/06/30 11:24:10;;;;;;;7.63;3.73;;;;;;;;;;5053856;28;20412;-74
2022/06/30 11:29:23;;;;;;;9.83;3.93;;;;;;;;;;5053511;28;20454;-74
2022/06/30 11:31:50;;;;;;;9.37;4.30;;;;;;;;;;5041550;28;20444;-73
2022/06/30 11:34:19;;;;;;;5.90;3.10;;;;;;;;;;5053838;28;20499;-73
2022/06/30 11:36:46;;;;;;;6.97;3.70;;;;;;;;;;5052664;28;20444;-73
2022/06/30 11:39:12;;;;;;;8.87;3.53;;;;;;;;;;5053709;28;20452;-73
2022/06/30 11:41:55;;;;;;;7.50;3.97;;;;;;;;;;5053951;28;20405;-74
2022/06/30 11:44:25;;;;;;;11.53;3.47;;;;;;;;;;5053901;28;20405;-74
2022/06/30 11:46:52;;;;;;;4.83;2.87;;;;;;;;;;5053843;28;20408;-73
2022/06/30 11:49:18;;;;;;;8.30;3.00;;;;;;;;;;5039232;28;20416;-73
2022/06/30 11:51:44;;;;;;;5.27;2.80;;;;;;;;;;5033666;28;20834;-74
2022/06/30 11:54:12;;;;;;;4.73;3.13;;;;;;;;;;5033475;28;20414;-73
2022/06/30 11:56:44;;;;;;;6.47;2.77;;;;;;;;;;5033597;28;20425;-73
2022/06/30 11:59:10;;;;;;;7.47;2.83;;;;;;;;;;5033545;28;20452;-73
2022/06/30 12:01:36;;;;;;;8.53;3.73;;;;;;;;;;5033130;28;20509;-73
2022/06/30 12:04:12;;;;;;;9.10;4.20;;;;;;;;;;5033148;28;20411;-73
2022/06/30 12:06:38;;;;;;;13.67;4.07;;;;;;;;;;5033387;28;20425;-72
2022/06/30 12:09:04;;;;;;;10.23;3.60;;;;;;;;;;5033346;28;20471;-73
2022/06/30 12:11:30;;;;;;;6.93;3.10;;;;;;;;;;5033392;28;20409;-73
2022/06/30 12:13:56;;;;;;;8.60;2.50;;;;;;;;;;5031840;28;20495;-73
2022/06/30 12:16:22;;;;;;;9.13;4.10;;;;;;;;;;5033264;28;20434;-74
2022/06/30 12:18:48;;;;;;;6.63;3.53;;;;;;;;;;5033137;28;20452;-73
2022/06/30 12:21:14;;;;;;;9.13;3.10;;;;;;;;;;5033176;28;20441;-74
2022/06/30 12:23:41;;;;;;;6.10;3.23;;;;;;;;;;5032692;28;20492;-73
2022/06/30 12:26:07;;;;;;;6.23;3.00;;;;;;;;;;5049464;28;20494;-74
2022/06/30 12:28:46;;;;;;;4.97;3.00;;;;;;;;;;5053077;28;20397;-74
2022/06/30 12:31:22;;;;;;;8.40;3.03;;;;;;;;;;5052865;28;20420;-72
2022/06/30 12:33:48;;;;;;;7.33;3.60;;;;;;;;;;5052627;28;20491;-74
2022/06/30 12:36:15;;;;;;;8.23;3.53;;;;;;;;;;5052837;28;20844;-73
2022/06/30 12:38:41;;;;;;;10.97;3.13;;;;;;;;;;5052911;28;20901;-74
2022/06/30 12:41:07;;;;;;;4.07;2.60;;;;;;;;;;5052774;28;20459;-73
2022/06/30 12:43:42;;;;;;;8.03;3.70;;;;;;;;;;5052372;28;20757;-73
2022/06/30 12:46:09;;;;;;;3.57;3.03;;;;;;;;;;5051482;28;20458;-73
2022/06/30 12:48:46;;;;;;;8.73;3.03;;;;;;;;;;5052679;28;20420;-73
2022/06/30 12:51:13;;;;;;;5.83;3.20;;;;;;;;;;5053057;28;20506;-73
2022/06/30 12:53:40;;;;;;;7.50;3.03;;;;;;;;;;5050837;28;20451;-73
2022/06/30 12:56:08;;;;;;;10.53;2.77;;;;;;;;;;5052534;28;20467;-74
2022/06/30 12:58:44;;;;;;;3.03;2.73;;;;;;;;;;5052830;28;20412;-73
2022/06/30 13:01:18;;;;;;;4.20;2.47;;;;;;;;;;5052599;28;20458;-74
2022/06/30 13:03:48;;;;;;;4.60;2.63;;;;;;;;;;5052882;28;20888;-73
2022/06/30 13:06:14;;;;;;;8.30;2.83;;;;;;;;;;5032482;28;20434;-74
2022/06/30 13:08:43;;;;;;;4.20;2.87;;;;;;;;;;5049333;28;20778;-73
2022/06/30 13:11:11;;;;;;;8.03;3.33;;;;;;;;;;5052510;28;20483;-73
2022/06/30 13:13:37;;;;;;;4.37;2.67;;;;;;;;;;5052545;28;20413;-73
2022/06/30 13:16:03;;;;;;;6.60;2.70;;;;;;;;;;5041393;28;20436;-73
2022/06/30 13:18:29;;;;;;;4.03;2.53;;;;;;;;;;5035322;28;20520;-73
2022/06/30 13:20:55;;;;;;;3.60;2.70;;;;;;;;;;5036293;28;20539;-73
2022/06/30 13:23:21;;;;;;;5.60;2.97;;;;;;;;;;5036188;28;20417;-73
2022/06/30 13:25:47;;;;;;;7.70;2.50;;;;;;;;;;5036205;28;20433;-74
2022/06/30 13:28:13;;;;;;;7.97;3.10;;;;;;;;;;5018564;28;20422;-74
2022/06/30 13:30:39;;;;;;;3.17;2.87;;;;;;;;;;5036447;28;20429;-74
2022/06/30 13:33:05;;;;;;;2.70;2.40;;;;;;;;;;5035897;28;20460;-74
2022/06/30 13:35:31;;;;;;;2.90;2.57;;;;;;;;;;5035848;28;20441;-74
2022/06/30 13:37:57;;;;;;;3.87;3.03;;;;;;;;;;5036110;28;20428;-74
2022/06/30 13:40:23;;;;;;;7.53;3.30;;;;;;;;;;5035975;28;20461;-73
2022/06/30 13:42:49;;;;;;;5.80;2.90;;;;;;;;;;5034812;28;20856;-73
2022/06/30 13:45:15;;;;;;;5.37;2.73;;;;;;;;;;5035811;28;20434;-73
2022/06/30 13:47:41;;;;;;;4.33;2.80;;;;;;;;;;5036012;28;20505;-73
2022/06/30 13:50:07;;;;;;;6.17;3.60;;;;;;;;;;5035793;28;20504;-73
2022/06/30 13:52:35;;;;;;;8.57;3.00;;;;;;;;;;5036034;28;20419;-73
2022/06/30 13:55:01;;;;;;;3.97;2.50;;;;;;;;;;5034266;28;20437;-73
2022/06/30 13:57:27;;;;;;;4.70;2.40;;;;;;;;;;5035778;28;20432;-73
2022/06/30 13:59:53;;;;;;;3.17;2.30;;;;;;;;;;5034600;28;20457;-73
2022/06/30 14:02:19;;;;;;;3.10;2.80;;;;;;;;;;5034262;28;20433;-74
2022/06/30 14:04:45;;;;;;;5.00;3.03;;;;;;;;;;5035282;28;20794;-73
2022/06/30 14:07:11;;;;;;;3.10;2.80;;;;;;;;;;5035535;28;20426;-73
2022/06/30 14:09:37;;;;;;;3.37;2.33;;;;;;;;;;5035402;28;20968;-74
2022/06/30 14:12:03;;;;;;;4.90;2.90;;;;;;;;;;5035559;28;20410;-74
2022/06/30 14:14:29;;;;;;;6.10;2.50;;;;;;;;;;5035243;28;20435;-74
2022/06/30 14:16:56;;;;;;;3.63;3.00;;;;;;;;;;5034312;28;20433;-74
2022/06/30 14:19:22;;;;;;;5.87;3.23;;;;;;;;;;5035325;28;20560;-74
2022/06/30 14:21:49;;;;;;;4.00;2.90;;;;;;;;;;5035450;28;20409;-74
2022/06/30 14:24:16;;;;;;;3.47;2.87;;;;;;;;;;5033622;28;20441;-75
2022/06/30 14:26:42;;;;;;;4.33;2.53;;;;;;;;;;5034904;28;20565;-74
2022/06/30 14:29:09;;;;;;;4.67;2.67;;;;;;;;;;5033989;28;20452;-74
2022/06/30 14:31:35;;;;;;;4.37;3.17;;;;;;;;;;5035205;28;20417;-74
2022/06/30 14:34:02;;;;;;;5.10;3.10;;;;;;;;;;5034979;28;20418;-74
2022/06/30 14:36:28;;;;;;;7.10;3.00;;;;;;;;;;5035096;28;20447;-74
2022/06/30 14:38:54;;;;;;;6.60;3.00;;;;;;;;;;5034881;28;20535;-74
2022/06/30 14:44:04;;;;;;;4.83;3.10;;;;;;;;;;5038221;28;20419;-74
2022/06/30 14:46:30;;;;;;;7.70;3.00;;;;;;;;;;5033653;28;20453;-74
2022/06/30 14:48:56;;;;;;;2.67;2.43;;;;;;;;;;5034859;28;20409;-74
2022/06/30 14:51:22;;;;;;;3.30;3.00;;;;;;;;;;5035007;28;20464;-74
2022/06/30 14:53:48;;;;;;;8.73;3.00;;;;;;;;;;5037048;28;21094;-74
2022/06/30 14:56:14;;;;;;;4.87;3.13;;;;;;;;;;5054814;28;20512;-74
2022/06/30 14:58:40;;;;;;;4.90;2.80;;;;;;;;;;5054177;28;20405;-74
2022/06/30 15:01:06;;;;;;;7.13;3.70;;;;;;;;;;5048683;28;20476;-74
2022/06/30 15:03:38;;;;;;;10.17;3.73;;;;;;;;;;5040429;28;20429;-74
2022/06/30 15:06:05;;;;;;;2.37;2.17;;;;;;;;;;5033282;28;20482;-75